• Join FlightAware (Why Join?)
  • Login
  • US Flag 
02:12PM EDT


 

Airport Tracker/Info


-or-


 

Live Flight TrackerFlight Track Log ✈ TAI397 ✈ 08-Jul-2013 ✈ KMIA - MNMG / MGA

Flight Track Log - Related Links

Times and Time Zones

All times are in EDT time to prevent confusion due to time zone crossing. See the TAI397 flight status page for this flight to view local times or setup timezone preferences in your user account.

Time Position Orientation Groundspeed Altitude Reporting Facility
EDT Latitude Longitude Course Direction KTS MPH feet Rate Location/Type
04:23PM 25.7961 -80.2675 110° East 148 170 1,000  Level Miami Center
04:24PM 25.7864 -80.2372 110° East 171 197 1,700 1,620 Climbing Miami Center
04:25PM 25.7606 -80.1811 117° Southeast 222 255 3,700 1,680 Climbing Miami Center
04:26PM 25.7031 -80.1403 147° Southeast 284 327 5,400 1,200 Climbing Miami Center
04:27PM 25.6353 -80.1753 205° Southwest 296 341 6,200 1,800 Climbing Miami Center
04:28PM 25.5486 -80.2236 207° Southwest 302 348 9,100 1,800 Climbing Miami Center
04:29PM 25.4494 -80.2739 205° Southwest 337 388 10,700 1,380 Climbing Miami Center
04:31PM 25.3542 -80.3264 206° Southwest 365 420 12,700 2,040 Climbing Miami Center
04:32PM 25.2333 -80.3919 206° Southwest 393 452 15,300 2,160 Climbing Miami Center
04:33PM 25.1261 -80.4300 198° South 405 466 17,100 1,560 Climbing Miami Center
04:34PM 25.0103 -80.4656 196° South 415 478 18,500 1,560 Climbing Miami Center
04:35PM 24.8922 -80.5033 196° South 429 494 20,300 1,500 Climbing Miami Center
04:36PM 24.7744 -80.5411 196° South 440 506 21,600 1,260 Climbing Miami Center
04:37PM 24.6522 -80.5808 196° South 445 512 22,900 1,260 Climbing Miami Center
04:38PM 24.5303 -80.6161 195° South 450 518 24,200 1,140 Climbing Miami Center
04:39PM 24.4039 -80.6578 197° South 465 535 25,200 960 Climbing Miami Center
04:40PM 24.2711 -80.6994 196° South 476 548 26,200 900 Climbing Miami Center
04:41PM 24.1428 -80.7411 197° South 481 554 27,000 780 Climbing Miami Center
04:43PM 23.9335 -80.8040 196° South  Level FlightAware Approximate
04:50PM 23.1555 -81.0446 196° South  Level FlightAware Approximate
04:51PM 23.0443 -81.0787 196° South  Level FlightAware Approximate
04:52PM 22.9332 -81.1127 196° South  Level FlightAware Approximate
04:53PM 22.8220 -81.1467 196° South  Level FlightAware Approximate
04:54PM 22.7108 -81.1807 196° South  Level FlightAware Approximate
04:55PM 22.5996 -81.2145 196° South  Level FlightAware Approximate
04:56PM 22.4884 -81.2484 196° South  Level FlightAware Approximate
04:57PM 22.3772 -81.2822 196° South  Level FlightAware Approximate
04:58PM 22.2659 -81.3159 196° South  Level FlightAware Approximate
04:59PM 22.1547 -81.3495 196° South  Level FlightAware Approximate
05:00PM 22.0435 -81.3832 196° South  Level FlightAware Approximate
05:01PM 21.9322 -81.4167 196° South  Level FlightAware Approximate
05:02PM 21.8210 -81.4502 196° South  Level FlightAware Approximate
05:03PM 21.7097 -81.4837 196° South  Level FlightAware Approximate
05:04PM 21.5986 -81.5175 211° Southwest  Level FlightAware Approximate
05:05PM 21.4993 -81.5808 211° Southwest  Level FlightAware Approximate
05:06PM 21.3995 -81.6434 209° Southwest  Level FlightAware Approximate
05:07PM 21.2980 -81.7026 209° Southwest  Level FlightAware Approximate
05:08PM 21.1963 -81.7614 208° Southwest  Level FlightAware Approximate
05:09PM 21.0940 -81.8188 208° Southwest  Level FlightAware Approximate
05:10PM 20.9916 -81.8761 208° Southwest  Level FlightAware Approximate
05:11PM 20.8892 -81.9333 208° Southwest  Level FlightAware Approximate
05:12PM 20.7868 -81.9905 208° Southwest  Level FlightAware Approximate
05:13PM 20.6843 -82.0476 208° Southwest  Level FlightAware Approximate
05:14PM 20.5833 -82.1073 210° Southwest  Level FlightAware Approximate
05:15PM 20.4828 -82.1683 210° Southwest  Level FlightAware Approximate
05:16PM 20.3824 -82.2292 210° Southwest  Level FlightAware Approximate
05:17PM 20.2820 -82.2900 210° Southwest  Level FlightAware Approximate
05:18PM 20.1815 -82.3508 210° Southwest  Level FlightAware Approximate
05:19PM 20.0782 -82.4000 180° South  Level FlightAware Approximate
05:20PM 19.9764 -82.4549 210° Southwest  Level FlightAware Approximate
05:21PM 19.8761 -82.5159 210° Southwest  Level FlightAware Approximate
05:22PM 19.7758 -82.5768 210° Southwest  Level FlightAware Approximate
05:23PM 19.6755 -82.6376 210° Southwest  Level FlightAware Approximate
05:24PM 19.5748 -82.6977 208° Southwest  Level FlightAware Approximate
05:25PM 19.4730 -82.7558 208° Southwest  Level FlightAware Approximate
05:26PM 19.3713 -82.8137 208° Southwest  Level FlightAware Approximate
05:27PM 19.2695 -82.8716 208° Southwest  Level FlightAware Approximate
05:28PM 19.1677 -82.9295 208° Southwest  Level FlightAware Approximate
05:29PM 19.0659 -82.9872 208° Southwest  Level FlightAware Approximate
05:30PM 18.9641 -83.0449 208° Southwest  Level FlightAware Approximate
05:31PM 18.8623 -83.1026 209° Southwest  Level FlightAware Approximate
05:32PM 18.7612 -83.1617 209° Southwest  Level FlightAware Approximate
05:33PM 18.6601 -83.2207 209° Southwest  Level FlightAware Approximate
05:34PM 18.5590 -83.2797 209° Southwest  Level FlightAware Approximate
05:35PM 18.4579 -83.3385 209° Southwest  Level FlightAware Approximate
05:36PM 18.3568 -83.3974 209° Southwest  Level FlightAware Approximate
05:37PM 18.2556 -83.4561 209° Southwest  Level FlightAware Approximate
05:38PM 18.1545 -83.5148 209° Southwest  Level FlightAware Approximate
05:39PM 18.0533 -83.5734 209° Southwest  Level FlightAware Approximate
05:40PM 17.9521 -83.6320 209° Southwest  Level FlightAware Approximate
05:41PM 17.8508 -83.6905 209° Southwest  Level FlightAware Approximate
05:42PM 17.7496 -83.7489 209° Southwest  Level FlightAware Approximate
05:43PM 17.6483 -83.8072 209° Southwest  Level FlightAware Approximate
05:44PM 17.5471 -83.8655 209° Southwest  Level FlightAware Approximate
05:45PM 17.4458 -83.9237 209° Southwest  Level FlightAware Approximate
05:46PM 17.3413 -83.9749 202° Southwest  Level FlightAware Approximate
05:47PM 17.2342 -84.0203 202° Southwest  Level FlightAware Approximate
05:48PM 17.1272 -84.0656 202° Southwest  Level FlightAware Approximate
05:49PM 17.0201 -84.1109 202° Southwest  Level FlightAware Approximate
05:50PM 16.9130 -84.1562 202° Southwest  Level FlightAware Approximate
05:51PM 16.8059 -84.2013 202° Southwest  Level FlightAware Approximate
05:52PM 16.6987 -84.2465 202° Southwest  Level FlightAware Approximate
05:53PM 16.5916 -84.2915 202° Southwest  Level FlightAware Approximate
05:54PM 16.4845 -84.3366 202° Southwest  Level FlightAware Approximate
05:55PM 16.3773 -84.3816 202° Southwest  Level FlightAware Approximate
05:56PM 16.2701 -84.4266 202° Southwest  Level FlightAware Approximate
05:57PM 16.1630 -84.4715 202° Southwest  Level FlightAware Approximate
05:58PM 16.0558 -84.5164 202° Southwest  Level FlightAware Approximate
05:59PM 15.9487 -84.5613 202° Southwest  Level FlightAware Approximate
06:00PM 15.8415 -84.6061 202° Southwest  Level FlightAware Approximate
06:01PM 15.7343 -84.6509 202° Southwest  Level FlightAware Approximate
06:02PM 15.6271 -84.6956 202° Southwest  Level FlightAware Approximate
06:03PM 15.5204 -84.7414 203° Southwest  Level FlightAware Approximate
06:04PM 15.4137 -84.7872 202° Southwest  Level FlightAware Approximate
06:05PM 15.3069 -84.8330 202° Southwest  Level FlightAware Approximate
06:06PM 15.2002 -84.8788 202° Southwest  Level FlightAware Approximate
06:07PM 15.0934 -84.9245 202° Southwest  Level FlightAware Approximate
06:08PM 14.9866 -84.9701 202° Southwest  Level FlightAware Approximate
06:09PM 14.8799 -85.0158 203° Southwest  Level FlightAware Approximate
06:10PM 14.7732 -85.0615 203° Southwest  Level FlightAware Approximate
06:11PM 14.6665 -85.1073 203° Southwest  Level FlightAware Approximate
06:12PM 14.5598 -85.1531 203° Southwest  Level FlightAware Approximate
06:13PM 14.4531 -85.1988 203° Southwest  Level FlightAware Approximate
06:14PM 14.3464 -85.2445 203° Southwest  Level FlightAware Approximate
06:15PM 14.2397 -85.2902 203° Southwest  Level FlightAware Approximate
06:16PM 14.1313 -85.3311 199° South  Level FlightAware Approximate
06:17PM 14.0224 -85.3710 201° Southwest  Level FlightAware Approximate
06:18PM 13.9160 -85.4170 206° Southwest  Level FlightAware Approximate
06:19PM 13.8118 -85.4683 198° South  Level FlightAware Approximate
06:20PM 13.7047 -85.5123 204° Southwest  Level FlightAware Approximate
06:21PM 13.5995 -85.5614 204° Southwest  Level FlightAware Approximate
06:22PM 13.4934 -85.6083 199° South  Level FlightAware Approximate
06:23PM 13.3843 -85.6473 199° South  Level FlightAware Approximate
06:24PM 13.2754 -85.6867 203° Southwest  Level FlightAware Approximate
06:25PM 13.1688 -85.7325 203° Southwest  Level FlightAware Approximate
06:26PM 13.0622 -85.7781 203° Southwest  Level FlightAware Approximate
06:27PM 12.9547 -85.8215 201° Southwest  Level FlightAware Approximate
06:28PM 12.8476 -85.8659 203° Southwest  Level FlightAware Approximate
06:29PM 12.7416 -85.9130 203° Southwest  Level FlightAware Approximate
06:30PM 12.6347 -85.9578 202° Southwest  Level FlightAware Approximate
06:31PM 12.5277 -86.0023 201° Southwest  Level FlightAware Approximate
06:32PM 12.4201 -86.0453 201° Southwest  Level FlightAware Approximate
06:33PM 12.3152 -86.0899 213° Southwest  Level FlightAware Approximate
06:34PM 12.2090 -86.1352 194° South  Level FlightAware Approximate
06:35PM 12.1500 -86.1500 194° South  Level FlightAware Approximate
06:36PM 12.1415 -86.1682 194° South  Level Estimated
06:37PM 12.1415 -86.1682 194° South  Level Estimated
06:38PM 12.1415 -86.1682 194° South  Level Estimated
06:39PM 12.1415 -86.1682 194° South  Level Estimated
06:40PM 12.1415 -86.1682 194° South  Level Estimated
06:41PM 12.1415 -86.1682 194° South  Level Estimated
06:42PM 12.1415 -86.1682 194° South  Level Estimated
06:43PM 12.1415 -86.1682 194° South  Level Estimated
06:44PM 12.1415 -86.1682 194° South  Level Estimated
06:45PM 12.1415 -86.1682 194° South  Level Estimated
06:46PM 12.1415 -86.1682 194° South  Level Estimated
06:47PM 12.1415 -86.1682 194° South  Level Estimated
06:48PM 12.1415 -86.1682 194° South  Level Estimated